createdAt,value
2023-04-12T00:01:58.390Z,4.30
2023-04-12T00:05:03.767Z,6.30
2023-04-12T00:08:06.437Z,3.78
2023-04-12T00:11:07.465Z,3.25
2023-04-12T00:14:08.457Z,3.70
2023-04-12T00:17:09.453Z,5.38
2023-04-12T00:20:13.691Z,5.82
2023-04-12T00:23:15.626Z,2.70
2023-04-12T00:26:16.742Z,2.80
2023-04-12T00:29:18.554Z,4.70
2023-04-12T00:32:19.608Z,9.23
2023-04-12T00:35:20.994Z,2.55
2023-04-12T00:38:21.820Z,4.85
2023-04-12T00:41:24.449Z,3.45
2023-04-12T00:44:26.057Z,6.00
2023-04-12T00:47:29.916Z,3.90
2023-04-12T00:50:31.306Z,3.15
2023-04-12T00:53:33.427Z,2.25
2023-04-12T00:56:35.442Z,4.10
2023-04-12T00:59:36.467Z,2.40
2023-04-12T01:02:39.669Z,3.55
2023-04-12T01:06:04.625Z,3.72
2023-04-12T01:09:14.170Z,1.75
2023-04-12T01:12:57.031Z,3.53
2023-04-12T01:16:44.590Z,2.03
2023-04-12T01:20:14.760Z,1.77
2023-04-12T01:23:50.631Z,2.20
2023-04-12T01:26:52.360Z,2.85
2023-04-12T01:29:53.828Z,3.63
2023-04-12T01:32:59.865Z,4.90
2023-04-12T01:36:07.632Z,3.33
2023-04-12T01:39:09.576Z,2.50
2023-04-12T01:42:10.560Z,4.25
2023-04-12T01:45:12.498Z,4.47
2023-04-12T01:48:13.834Z,2.58
2023-04-12T01:51:31.139Z,2.15
2023-04-12T01:54:39.327Z,2.17
2023-04-12T01:57:44.172Z,3.58
2023-04-12T02:00:46.592Z,4.00
2023-04-12T02:03:50.960Z,2.47
2023-04-12T02:06:52.830Z,2.63
2023-04-12T02:09:53.717Z,3.70
2023-04-12T02:12:55.664Z,3.03
2023-04-12T02:15:59.442Z,3.95
2023-04-12T02:19:00.476Z,5.72
2023-04-12T02:22:02.464Z,4.53
2023-04-12T02:25:08.100Z,3.75
2023-04-12T02:28:09.321Z,4.53
2023-04-12T02:31:10.614Z,4.80
2023-04-12T02:34:13.559Z,3.97
2023-04-12T02:37:22.304Z,4.07
2023-04-12T02:40:23.888Z,4.55
2023-04-12T02:43:25.713Z,3.35
2023-04-12T02:46:34.168Z,4.53
2023-04-12T02:49:35.297Z,4.50
2023-04-12T02:52:37.294Z,6.38
2023-04-12T02:55:42.142Z,7.15
2023-04-12T02:58:44.467Z,5.93
2023-04-12T03:01:50.960Z,8.25
2023-04-12T03:04:59.958Z,8.82
2023-04-12T03:08:10.293Z,10.73
2023-04-12T03:11:16.718Z,8.20
2023-04-12T03:14:18.266Z,7.55
2023-04-12T03:17:19.434Z,8.38
2023-04-12T03:20:20.788Z,6.30
2023-04-12T03:23:31.154Z,8.57
2023-04-12T03:26:42.452Z,6.72
2023-04-12T03:29:48.183Z,5.38
2023-04-12T03:32:50.567Z,6.40
2023-04-12T03:35:52.076Z,5.57
2023-04-12T03:38:54.368Z,5.13
2023-04-12T03:41:55.790Z,5.20
2023-04-12T03:45:02.654Z,4.40
2023-04-12T03:48:05.167Z,4.38
2023-04-12T03:51:15.557Z,3.05
2023-04-12T03:54:18.878Z,2.53
2023-04-12T03:57:46.675Z,4.10
2023-04-12T04:00:49.360Z,2.63
2023-04-12T04:03:50.846Z,3.60
2023-04-12T04:06:57.640Z,10.40
2023-04-12T04:10:00.805Z,5.55
2023-04-12T04:13:07.152Z,6.47
2023-04-12T04:16:11.189Z,5.65
2023-04-12T04:19:14.403Z,9.27
2023-04-12T04:22:21.810Z,9.73
2023-04-12T04:25:30.193Z,6.88
2023-04-12T04:28:35.298Z,5.75
2023-04-12T04:31:37.982Z,8.55
2023-04-12T04:34:40.754Z,12.13
2023-04-12T04:37:45.981Z,8.48
2023-04-12T04:40:53.635Z,8.10
2023-04-12T04:44:00.771Z,9.63
2023-04-12T04:47:05.260Z,7.15
2023-04-12T04:50:07.786Z,8.90
2023-04-12T04:53:08.947Z,6.63
2023-04-12T04:56:11.657Z,6.10
2023-04-12T04:59:12.981Z,7.45
2023-04-12T05:02:15.010Z,6.10
2023-04-12T05:05:16.379Z,6.70
2023-04-12T05:08:19.463Z,6.22
2023-04-12T05:11:22.800Z,8.40
2023-04-12T05:14:33.829Z,6.80
2023-04-12T05:17:43.022Z,5.88
2023-04-12T05:20:44.354Z,8.30
2023-04-12T05:23:47.555Z,9.52
2023-04-12T05:26:48.612Z,7.10
2023-04-12T05:29:50.055Z,7.50
2023-04-12T05:32:53.053Z,9.85
2023-04-12T05:35:54.971Z,9.82
2023-04-12T05:38:56.036Z,10.25
2023-04-12T05:41:57.348Z,8.32
2023-04-12T05:45:01.450Z,8.50
2023-04-12T05:48:02.827Z,9.77
2023-04-12T05:51:05.580Z,9.15
2023-04-12T05:54:07.613Z,12.32
2023-04-12T05:57:09.939Z,19.30
2023-04-12T06:00:17.705Z,12.95
2023-04-12T06:03:22.731Z,8.95
2023-04-12T06:06:30.561Z,9.57
2023-04-12T06:09:33.042Z,8.32
2023-04-12T06:12:34.817Z,12.10
2023-04-12T06:15:36.544Z,10.63
2023-04-12T06:18:37.780Z,7.75
2023-04-12T06:21:39.624Z,6.82
2023-04-12T06:24:41.323Z,6.97
2023-04-12T06:27:44.668Z,7.10
2023-04-12T06:30:47.407Z,7.78
2023-04-12T06:33:48.703Z,8.70
2023-04-12T06:36:50.594Z,8.80
2023-04-12T06:39:51.477Z,8.43
2023-04-12T06:42:52.530Z,7.55
2023-04-12T06:45:57.296Z,10.18
2023-04-12T06:48:58.863Z,7.70
2023-04-12T06:52:00.132Z,5.80
2023-04-12T06:55:01.153Z,4.85
2023-04-12T06:58:02.222Z,7.22
2023-04-12T07:01:10.424Z,4.82
2023-04-12T07:04:12.512Z,5.72
2023-04-12T07:07:13.704Z,4.95
2023-04-12T07:10:14.996Z,4.78
2023-04-12T07:13:16.272Z,4.93
2023-04-12T07:16:18.423Z,8.05
2023-04-12T07:19:19.669Z,5.20
2023-04-12T07:22:20.935Z,3.53
2023-04-12T07:25:22.032Z,4.53
2023-04-12T07:28:23.063Z,4.50
2023-04-12T07:31:24.315Z,4.50
2023-04-12T07:34:25.767Z,5.85
2023-04-12T07:37:27.426Z,2.33
2023-04-12T07:40:28.588Z,7.28
2023-04-12T07:43:32.839Z,5.15
2023-04-12T07:46:33.924Z,2.78
2023-04-12T07:49:35.137Z,3.80
2023-04-12T07:52:36.194Z,4.10
2023-04-12T07:55:37.036Z,3.30
2023-04-12T07:58:38.335Z,4.00
2023-04-12T08:01:39.126Z,4.40
2023-04-12T08:04:44.454Z,2.50
2023-04-12T08:07:46.016Z,2.33
2023-04-12T08:10:47.971Z,2.40
2023-04-12T08:13:49.234Z,4.88
2023-04-12T08:16:50.782Z,3.90
2023-04-12T08:19:51.837Z,3.17
2023-04-12T08:22:53.015Z,1.70
2023-04-12T08:26:03.621Z,2.80
2023-04-12T08:29:04.736Z,2.35
2023-04-12T08:32:06.143Z,1.48
2023-04-12T08:35:07.961Z,2.60
2023-04-12T08:38:08.848Z,1.35
2023-04-12T08:41:10.256Z,2.55
2023-04-12T08:44:12.757Z,1.35
2023-04-12T08:47:13.655Z,2.10
2023-04-12T08:50:14.692Z,0.90
2023-04-12T08:53:15.836Z,1.05
2023-04-12T08:56:17.295Z,0.75
2023-04-12T08:59:20.092Z,1.05
2023-04-12T09:02:21.810Z,1.98
2023-04-12T09:05:30.534Z,1.25
2023-04-12T09:08:32.168Z,2.45
2023-04-12T09:11:33.494Z,1.40
2023-04-12T09:14:34.481Z,1.30
2023-04-12T09:17:39.292Z,2.28
2023-04-12T09:20:40.886Z,4.93
2023-04-12T09:23:41.936Z,3.35
2023-04-12T09:26:42.941Z,4.05
2023-04-12T09:29:45.841Z,3.88
2023-04-12T09:32:50.901Z,1.40
2023-04-12T09:36:04.774Z,2.10
2023-04-12T09:39:07.820Z,4.07
2023-04-12T09:42:25.694Z,1.50
2023-04-12T09:45:39.048Z,1.60
2023-04-12T09:48:41.977Z,2.63
2023-04-12T09:51:43.082Z,4.03
2023-04-12T09:54:49.053Z,2.90
2023-04-12T09:57:52.918Z,1.92
2023-04-12T10:01:00.176Z,2.67
2023-04-12T10:04:02.671Z,2.70
2023-04-12T10:07:04.859Z,2.17
2023-04-12T10:10:08.866Z,5.55
2023-04-12T10:13:14.040Z,2.63
2023-04-12T10:16:17.102Z,1.23
2023-04-12T10:19:19.407Z,3.58
2023-04-12T10:22:20.689Z,2.88
2023-04-12T10:25:25.718Z,2.47
2023-04-12T10:28:27.267Z,7.40
2023-04-12T10:31:31.025Z,1.63
2023-04-12T10:34:32.422Z,4.05
2023-04-12T10:38:19.434Z,1.35
2023-04-12T10:41:22.467Z,3.25
2023-04-12T10:44:26.897Z,1.40
2023-04-12T10:47:49.747Z,1.63
2023-04-12T10:51:31.254Z,1.92
2023-04-12T10:55:27.911Z,1.40
2023-04-12T10:58:50.871Z,2.30
2023-04-12T11:02:13.700Z,1.35
2023-04-12T11:05:19.536Z,1.88
2023-04-12T11:08:28.384Z,2.20
2023-04-12T11:12:05.968Z,4.68
2023-04-12T11:15:12.639Z,2.92
2023-04-12T11:18:23.099Z,2.38
2023-04-12T11:21:26.178Z,2.33
2023-04-12T11:24:27.887Z,3.80
2023-04-12T11:27:32.040Z,6.47
2023-04-12T11:30:32.955Z,3.65
2023-04-12T11:33:41.758Z,3.38
2023-04-12T11:36:43.013Z,8.82
2023-04-12T11:39:46.107Z,3.67
2023-04-12T11:42:47.321Z,4.07
2023-04-12T11:45:48.629Z,3.92
2023-04-12T11:48:49.636Z,4.55
2023-04-12T11:51:50.559Z,3.85
2023-04-12T11:54:56.578Z,2.42
2023-04-12T11:58:00.541Z,2.90
2023-04-12T12:01:02.397Z,6.03
2023-04-12T12:04:04.853Z,6.10
2023-04-12T12:07:08.007Z,3.70
2023-04-12T12:10:10.143Z,2.47
2023-04-12T12:13:15.225Z,5.75
2023-04-12T12:16:17.885Z,1.40
2023-04-12T12:19:30.923Z,4.13
2023-04-12T12:22:31.721Z,2.30
2023-04-12T12:25:32.660Z,4.18
2023-04-12T12:28:41.021Z,3.38
2023-04-12T12:31:50.460Z,2.60
2023-04-12T12:34:54.442Z,2.78
2023-04-12T12:37:59.055Z,1.80
2023-04-12T12:41:14.948Z,4.03
2023-04-12T12:44:15.763Z,2.45
2023-04-12T12:47:17.150Z,1.75
2023-04-12T12:50:21.020Z,3.30
2023-04-12T12:53:24.501Z,3.08
2023-04-12T12:56:25.769Z,2.25
2023-04-12T12:59:27.545Z,2.70
2023-04-12T13:02:28.956Z,6.82
2023-04-12T13:05:30.555Z,2.78
2023-04-12T13:08:35.556Z,4.30
2023-04-12T13:11:37.231Z,2.50
2023-04-12T13:14:39.514Z,2.15
2023-04-12T13:17:40.823Z,1.23
2023-04-12T13:20:42.560Z,1.55
2023-04-12T13:23:43.564Z,2.22
2023-04-12T13:26:44.557Z,2.20
2023-04-12T13:29:45.518Z,2.05
2023-04-12T13:32:47.003Z,2.70
2023-04-12T13:35:48.078Z,1.00
2023-04-12T13:38:48.897Z,1.95
2023-04-12T13:41:52.031Z,4.35
2023-04-12T13:44:53.370Z,1.77
2023-04-12T13:47:54.174Z,2.92
2023-04-12T13:50:56.022Z,3.40
2023-04-12T13:53:56.990Z,1.27
2023-04-12T13:56:58.696Z,3.03
2023-04-12T13:59:59.560Z,2.58
2023-04-12T14:03:01.424Z,1.75
2023-04-12T14:06:02.950Z,1.50
2023-04-12T14:09:05.883Z,2.45
2023-04-12T14:12:07.131Z,3.92
2023-04-12T14:15:08.813Z,1.77
2023-04-12T14:18:09.849Z,3.03
2023-04-12T14:21:11.567Z,2.53
2023-04-12T14:24:12.882Z,1.30
2023-04-12T14:27:15.979Z,0.85
2023-04-12T14:30:19.254Z,0.80
2023-04-12T14:33:20.451Z,1.40
2023-04-12T14:36:21.835Z,1.27
2023-04-12T14:39:24.483Z,0.80
2023-04-12T14:42:25.657Z,1.10
2023-04-12T14:45:27.759Z,1.30
2023-04-12T14:48:28.954Z,0.80
2023-04-12T14:51:29.933Z,2.75
2023-04-12T14:54:31.212Z,1.73
2023-04-12T14:57:33.037Z,1.60
2023-04-12T15:00:34.460Z,1.00
2023-04-12T15:03:36.312Z,1.10
2023-04-12T15:06:42.371Z,0.63
2023-04-12T15:09:44.328Z,0.82
2023-04-12T15:12:45.211Z,0.80
2023-04-12T15:15:47.645Z,1.40
2023-04-12T15:18:51.533Z,1.15
2023-04-12T15:21:57.236Z,0.68
2023-04-12T15:24:58.311Z,1.02
2023-04-12T15:27:59.548Z,1.23
2023-04-12T15:31:01.487Z,1.83
2023-04-12T15:34:02.710Z,0.82
2023-04-12T15:37:05.522Z,1.73
2023-04-12T15:40:20.289Z,2.00
2023-04-12T15:43:21.710Z,1.08
2023-04-12T15:46:22.905Z,1.48
2023-04-12T15:49:25.705Z,0.70
2023-04-12T15:52:27.304Z,1.48
2023-04-12T15:55:28.454Z,2.60
2023-04-12T15:58:29.528Z,0.80
2023-04-12T16:01:30.543Z,0.70
2023-04-12T16:04:32.111Z,0.90
2023-04-12T16:07:34.155Z,1.38
2023-04-12T16:10:37.933Z,2.00
2023-04-12T16:13:41.996Z,3.53
2023-04-12T16:16:43.359Z,1.42
2023-04-12T16:19:44.619Z,4.25
2023-04-12T16:22:46.265Z,1.67
2023-04-12T16:25:47.617Z,1.65
2023-04-12T16:28:53.611Z,1.67
2023-04-12T16:31:55.080Z,1.30
2023-04-12T16:34:56.536Z,1.13
2023-04-12T16:37:57.839Z,2.58
2023-04-12T16:40:58.720Z,2.38
2023-04-12T16:44:01.795Z,3.08
2023-04-12T16:47:03.223Z,1.70
2023-04-12T16:50:05.485Z,1.80
2023-04-12T16:53:08.714Z,2.85
2023-04-12T16:56:09.734Z,2.60
2023-04-12T16:59:10.819Z,2.15
2023-04-12T17:02:12.846Z,2.75
2023-04-12T17:05:17.994Z,2.78
2023-04-12T17:08:19.223Z,2.03
2023-04-12T17:11:20.276Z,2.00
2023-04-12T17:14:22.170Z,2.35
2023-04-12T17:17:23.128Z,2.60
2023-04-12T17:20:24.328Z,2.15
2023-04-12T17:23:25.968Z,2.28
2023-04-12T17:26:28.092Z,3.17
2023-04-12T17:29:29.808Z,1.98
2023-04-12T17:32:31.597Z,3.50
2023-04-12T17:35:32.569Z,2.95
2023-04-12T17:38:33.285Z,2.05
2023-04-12T17:41:34.176Z,2.85
2023-04-12T17:44:35.206Z,1.92
2023-04-12T17:47:37.316Z,3.58
2023-04-12T17:50:38.304Z,3.67
2023-04-12T17:53:39.451Z,3.58
2023-04-12T17:56:40.198Z,5.70
2023-04-12T17:59:41.876Z,6.88
2023-04-12T18:02:46.986Z,3.80
2023-04-12T18:05:47.985Z,5.95
2023-04-12T18:08:48.798Z,4.45
2023-04-12T18:11:49.762Z,2.85
2023-04-12T18:14:51.112Z,2.03
2023-04-12T18:17:52.141Z,2.72
2023-04-12T18:20:53.321Z,1.48
2023-04-12T18:23:57.754Z,2.90
2023-04-12T18:26:59.502Z,2.17
2023-04-12T18:30:01.680Z,2.05
2023-04-12T18:33:04.151Z,3.45
2023-04-12T18:36:06.161Z,3.78
2023-04-12T18:39:08.225Z,1.85
2023-04-12T18:42:08.984Z,1.60
2023-04-12T18:45:10.842Z,1.77
2023-04-12T18:48:12.316Z,2.13
2023-04-12T18:51:14.278Z,2.03
2023-04-12T18:54:17.690Z,1.45
2023-04-12T18:57:19.526Z,1.30
2023-04-12T19:00:21.558Z,2.40
2023-04-12T19:03:23.309Z,1.75
2023-04-12T19:06:25.102Z,1.00
2023-04-12T19:09:26.828Z,1.33
2023-04-12T19:12:27.970Z,0.82
2023-04-12T19:15:28.945Z,0.90
2023-04-12T19:18:30.509Z,0.60
2023-04-12T19:21:32.237Z,2.65
2023-04-12T19:24:33.423Z,1.23
2023-04-12T19:27:34.846Z,0.73
2023-04-12T19:30:35.852Z,0.77
2023-04-12T19:33:37.451Z,0.70
2023-04-12T19:36:38.319Z,1.00
2023-04-12T19:39:40.842Z,0.68
2023-04-12T19:42:42.265Z,0.70
2023-04-12T19:45:44.404Z,0.90
2023-04-12T19:48:46.602Z,0.80
2023-04-12T19:51:48.403Z,0.82
2023-04-12T19:54:49.705Z,0.70
2023-04-12T19:57:51.480Z,0.80
2023-04-12T20:00:54.908Z,0.60
2023-04-12T20:03:55.925Z,1.48
2023-04-12T20:06:56.827Z,1.17
2023-04-12T20:09:59.024Z,0.98
2023-04-12T20:13:00.354Z,0.98
2023-04-12T20:16:01.489Z,2.58
2023-04-12T20:19:03.016Z,3.60
2023-04-12T20:22:04.400Z,1.67
2023-04-12T20:25:05.976Z,0.80
2023-04-12T20:28:10.212Z,0.90
2023-04-12T20:31:13.089Z,2.58
2023-04-12T20:34:14.030Z,1.10
2023-04-12T20:37:16.312Z,1.48
2023-04-12T20:40:18.770Z,1.33
2023-04-12T20:43:19.885Z,0.90
2023-04-12T20:46:25.974Z,3.05
2023-04-12T20:49:28.124Z,0.95
2023-04-12T20:52:30.554Z,3.78
2023-04-12T20:55:34.168Z,1.10
2023-04-12T20:58:35.496Z,1.35
2023-04-12T21:01:37.476Z,1.30
2023-04-12T21:04:39.421Z,1.20
2023-04-12T21:07:41.729Z,1.30
2023-04-12T21:10:43.009Z,1.40
2023-04-12T21:13:44.900Z,1.25
2023-04-12T21:16:48.757Z,4.18
2023-04-12T21:19:50.518Z,2.08
2023-04-12T21:22:52.107Z,2.63
2023-04-12T21:25:54.212Z,5.50
2023-04-12T21:28:55.470Z,9.10
2023-04-12T21:31:57.285Z,4.57
2023-04-12T21:34:58.725Z,6.40
2023-04-12T21:37:59.692Z,5.32
2023-04-12T21:41:11.763Z,5.00
2023-04-12T21:44:13.105Z,1.52
2023-04-12T21:47:13.948Z,1.30
2023-04-12T21:50:14.866Z,2.33
2023-04-12T21:53:16.648Z,1.30
2023-04-12T21:56:18.215Z,0.80
2023-04-12T21:59:19.109Z,1.75
2023-04-12T22:02:20.155Z,1.63
2023-04-12T22:05:21.295Z,0.70
2023-04-12T22:08:23.996Z,0.80
2023-04-12T22:11:25.258Z,0.70
2023-04-12T22:14:28.976Z,0.70
2023-04-12T22:17:30.476Z,0.70
2023-04-12T22:20:33.830Z,0.70
2023-04-12T22:23:38.949Z,1.27
2023-04-12T22:26:39.810Z,4.10
2023-04-12T22:29:40.783Z,0.80
2023-04-12T22:32:41.931Z,0.70
2023-04-12T22:35:43.463Z,1.40
2023-04-12T22:38:44.331Z,2.50
2023-04-12T22:41:49.518Z,0.60
2023-04-12T22:44:54.274Z,0.70
2023-04-12T22:47:55.723Z,0.77
2023-04-12T22:50:57.130Z,0.80
2023-04-12T22:53:58.467Z,1.75
2023-04-12T22:57:00.107Z,1.17
2023-04-12T23:00:01.082Z,0.80
2023-04-12T23:03:04.342Z,0.70
2023-04-12T23:06:06.165Z,0.98
2023-04-12T23:09:09.945Z,1.08
2023-04-12T23:12:11.016Z,0.70
2023-04-12T23:15:12.874Z,0.80
2023-04-12T23:18:14.015Z,1.33
2023-04-12T23:21:15.664Z,0.70
2023-04-12T23:24:17.824Z,0.80
2023-04-12T23:27:18.978Z,1.67
2023-04-12T23:30:20.504Z,0.80
2023-04-12T23:33:22.269Z,1.08
2023-04-12T23:36:25.907Z,2.30
2023-04-12T23:39:26.838Z,0.75
2023-04-12T23:42:28.880Z,0.80
2023-04-12T23:45:30.019Z,2.35
2023-04-12T23:48:32.552Z,0.60
2023-04-12T23:51:33.699Z,0.80
2023-04-12T23:54:35.020Z,1.05
2023-04-12T23:57:36.121Z,0.90
